Aviation Digital Data Service (ADDS)

Output produced by METARs form (0423 UTC 01 November 2014)
found at http://www.aviationweather.gov/adds/metars/
 
KCMI 312325Z 0100/0124 34018G32KT P6SM BKN040 
     FM010400 34016KT P6SM BKN035 
     FM011400 36014KT P6SM SKC